createdAt,value
2023-02-02T00:00:47.542Z,8.23
2023-02-02T00:03:14.172Z,6.93
2023-02-02T00:05:45.170Z,7.35
2023-02-02T00:08:11.556Z,7.40
2023-02-02T00:10:37.976Z,7.53
2023-02-02T00:13:04.392Z,9.30
2023-02-02T00:15:30.819Z,6.28
2023-02-02T00:17:57.242Z,8.73
2023-02-02T00:20:24.049Z,3.38
2023-02-02T00:22:50.412Z,7.28
2023-02-02T00:25:16.812Z,7.00
2023-02-02T00:27:44.286Z,6.63
2023-02-02T00:32:37.915Z,5.85
2023-02-02T00:35:04.414Z,5.53
2023-02-02T00:37:30.760Z,6.28
2023-02-02T00:39:57.138Z,8.65
2023-02-02T00:42:23.520Z,7.32
2023-02-02T00:45:08.587Z,5.05
2023-02-02T00:47:35.027Z,7.10
2023-02-02T00:50:01.448Z,6.05
2023-02-02T00:52:28.093Z,5.60
2023-02-02T00:54:54.590Z,5.60
2023-02-02T00:57:20.983Z,8.15
2023-02-02T00:59:47.391Z,7.00
2023-02-02T01:02:13.786Z,8.60
2023-02-02T01:04:40.266Z,8.70
2023-02-02T01:07:06.647Z,10.77
2023-02-02T01:09:33.015Z,6.63
2023-02-02T01:11:59.397Z,9.20
2023-02-02T01:14:26.001Z,6.85
2023-02-02T01:16:52.355Z,6.97
2023-02-02T01:19:18.844Z,16.75
2023-02-02T01:21:45.485Z,16.33
2023-02-02T01:24:11.874Z,11.65
2023-02-02T01:26:38.329Z,6.75
2023-02-02T01:29:04.702Z,8.77
2023-02-02T01:31:31.163Z,11.57
2023-02-02T01:33:57.547Z,7.80
2023-02-02T01:36:24.273Z,7.68
2023-02-02T01:38:51.064Z,9.50
2023-02-02T01:41:19.567Z,9.63
2023-02-02T01:43:45.999Z,7.63
2023-02-02T01:46:16.302Z,8.77
2023-02-02T01:48:44.170Z,13.32
2023-02-02T01:51:13.491Z,7.65
2023-02-02T01:53:41.579Z,7.32
2023-02-02T01:56:09.830Z,9.05
2023-02-02T01:58:37.905Z,6.00
2023-02-02T02:01:04.580Z,6.25
2023-02-02T02:03:32.733Z,7.97
2023-02-02T02:06:01.301Z,7.53
2023-02-02T02:08:29.830Z,7.75
2023-02-02T02:10:56.290Z,7.47
2023-02-02T02:13:43.889Z,6.70
2023-02-02T02:16:20.692Z,11.35
2023-02-02T02:18:57.517Z,8.98
2023-02-02T02:21:44.185Z,7.60
2023-02-02T02:25:01.415Z,7.55
2023-02-02T02:27:34.348Z,11.68
2023-02-02T02:30:03.594Z,6.65
2023-02-02T02:32:31.395Z,6.88
2023-02-02T02:35:10.014Z,7.00
2023-02-02T02:37:44.960Z,6.30
2023-02-02T02:40:11.428Z,5.93
2023-02-02T02:42:41.695Z,6.15
2023-02-02T02:45:09.888Z,6.55
2023-02-02T02:47:37.264Z,10.07
2023-02-02T02:50:03.816Z,6.45
2023-02-02T02:52:30.318Z,7.07
2023-02-02T02:54:58.330Z,7.13
2023-02-02T02:57:36.678Z,8.15
2023-02-02T03:00:09.095Z,6.50
2023-02-02T03:02:39.646Z,7.13
2023-02-02T03:05:21.465Z,8.05
2023-02-02T03:07:50.754Z,7.07
2023-02-02T03:10:19.478Z,5.60
2023-02-02T03:12:50.193Z,5.78
2023-02-02T03:15:17.301Z,6.88
2023-02-02T03:17:44.819Z,6.93
2023-02-02T03:20:11.306Z,14.75
2023-02-02T03:22:37.685Z,12.18
2023-02-02T03:25:04.311Z,10.88
2023-02-02T03:27:30.769Z,8.82
2023-02-02T03:29:57.870Z,8.77
2023-02-02T03:32:24.518Z,7.65
2023-02-02T03:34:50.931Z,9.80
2023-02-02T03:37:17.277Z,9.38
2023-02-02T03:39:43.669Z,9.55
2023-02-02T03:42:10.065Z,7.88
2023-02-02T03:44:36.551Z,11.68
2023-02-02T03:47:02.975Z,9.05
2023-02-02T03:49:29.315Z,11.45
2023-02-02T03:51:55.650Z,8.00
2023-02-02T03:54:22.086Z,9.65
2023-02-02T03:56:48.622Z,8.70
2023-02-02T03:59:15.007Z,10.65
2023-02-02T04:01:41.445Z,9.73
2023-02-02T04:04:08.469Z,19.08
2023-02-02T04:06:34.851Z,15.95
2023-02-02T04:09:01.230Z,14.40
2023-02-02T04:11:27.636Z,10.63
2023-02-02T04:13:54.027Z,13.10
2023-02-02T04:16:20.463Z,7.88
2023-02-02T04:18:46.852Z,11.05
2023-02-02T04:21:13.224Z,11.55
2023-02-02T04:23:39.619Z,11.32
2023-02-02T04:26:06.175Z,9.68
2023-02-02T04:28:32.684Z,11.60
2023-02-02T04:30:59.326Z,9.15
2023-02-02T04:33:26.987Z,10.63
2023-02-02T04:35:53.657Z,11.07
2023-02-02T04:38:20.162Z,10.02
2023-02-02T04:40:47.457Z,11.65
2023-02-02T04:43:14.213Z,10.95
2023-02-02T04:45:42.249Z,8.25
2023-02-02T04:48:09.014Z,8.82
2023-02-02T04:50:35.441Z,9.90
2023-02-02T04:53:01.853Z,9.18
2023-02-02T04:55:28.256Z,11.82
2023-02-02T04:57:54.668Z,11.50
2023-02-02T05:00:21.135Z,11.65
2023-02-02T05:02:47.506Z,12.52
2023-02-02T05:05:14.373Z,11.68
2023-02-02T05:07:40.807Z,13.70
2023-02-02T05:10:08.509Z,15.05
2023-02-02T05:12:34.898Z,12.18
2023-02-02T05:15:03.349Z,10.45
2023-02-02T05:17:30.021Z,10.40
2023-02-02T05:19:56.513Z,9.82
2023-02-02T05:22:23.050Z,8.90
2023-02-02T05:24:49.488Z,9.07
2023-02-02T05:27:15.864Z,12.40
2023-02-02T05:29:42.225Z,11.50
2023-02-02T05:32:08.663Z,9.18
2023-02-02T05:34:35.155Z,6.68
2023-02-02T05:37:01.564Z,11.10
2023-02-02T05:39:27.985Z,11.10
2023-02-02T05:41:54.453Z,10.13
2023-02-02T05:44:20.882Z,10.30
2023-02-02T05:46:47.320Z,9.27
2023-02-02T05:49:14.232Z,8.52
2023-02-02T05:51:43.474Z,9.80
2023-02-02T05:54:09.880Z,10.75
2023-02-02T05:56:36.343Z,7.43
2023-02-02T05:59:07.319Z,10.40
2023-02-02T06:01:34.261Z,8.40
2023-02-02T06:04:00.699Z,11.25
2023-02-02T06:06:27.286Z,11.43
2023-02-02T06:08:53.721Z,12.20
2023-02-02T06:11:20.180Z,9.35
2023-02-02T06:13:46.743Z,9.23
2023-02-02T06:16:13.391Z,10.52
2023-02-02T06:18:39.903Z,10.15
2023-02-02T06:21:07.030Z,8.07
2023-02-02T06:23:33.848Z,14.70
2023-02-02T06:26:00.674Z,11.65
2023-02-02T06:28:27.088Z,9.93
2023-02-02T06:30:53.586Z,11.32
2023-02-02T06:33:20.093Z,11.32
2023-02-02T06:35:46.573Z,6.10
2023-02-02T06:38:13.102Z,13.10
2023-02-02T06:40:39.503Z,10.48
2023-02-02T06:43:06.067Z,11.88
2023-02-02T06:45:32.562Z,10.98
2023-02-02T06:48:00.708Z,8.07
2023-02-02T06:50:27.108Z,8.80
2023-02-02T06:52:53.498Z,8.77
2023-02-02T06:55:20.083Z,10.77
2023-02-02T06:57:46.575Z,7.30
2023-02-02T07:00:13.411Z,10.90
2023-02-02T07:02:39.897Z,8.73
2023-02-02T07:05:06.371Z,7.82
2023-02-02T07:07:33.283Z,8.35
2023-02-02T07:09:59.675Z,8.05
2023-02-02T07:12:27.079Z,7.60
2023-02-02T07:14:54.223Z,10.32
2023-02-02T07:17:20.732Z,14.95
2023-02-02T07:19:47.147Z,9.38
2023-02-02T07:22:14.399Z,14.30
2023-02-02T07:24:40.850Z,9.27
2023-02-02T07:27:07.231Z,8.88
2023-02-02T07:29:33.632Z,9.23
2023-02-02T07:32:00.157Z,7.72
2023-02-02T07:34:26.717Z,8.50
2023-02-02T07:36:53.091Z,7.45
2023-02-02T07:39:19.521Z,7.25
2023-02-02T07:41:46.060Z,8.90
2023-02-02T07:44:28.361Z,7.93
2023-02-02T07:46:54.859Z,7.30
2023-02-02T07:49:21.335Z,8.77
2023-02-02T07:51:49.260Z,7.45
2023-02-02T07:54:15.660Z,8.32
2023-02-02T07:56:42.106Z,10.65
2023-02-02T07:59:10.477Z,10.00
2023-02-02T08:01:37.220Z,8.27
2023-02-02T08:04:03.836Z,9.43
2023-02-02T08:06:32.095Z,9.63
2023-02-02T08:08:58.823Z,8.90
2023-02-02T08:11:26.069Z,8.07
2023-02-02T08:13:53.907Z,9.00
2023-02-02T08:16:20.612Z,6.32
2023-02-02T08:18:47.064Z,9.45
2023-02-02T08:21:13.578Z,8.27
2023-02-02T08:23:40.523Z,7.03
2023-02-02T08:26:17.919Z,7.45
2023-02-02T08:28:45.807Z,8.90
2023-02-02T08:31:17.054Z,8.45
2023-02-02T08:33:43.955Z,9.13
2023-02-02T08:36:14.609Z,16.02
2023-02-02T08:38:41.081Z,16.30
2023-02-02T08:41:08.219Z,9.85
2023-02-02T08:43:34.771Z,12.10
2023-02-02T08:46:05.298Z,9.27
2023-02-02T08:48:32.359Z,9.20
2023-02-02T08:50:58.999Z,7.00
2023-02-02T08:53:25.812Z,9.32
2023-02-02T08:56:05.548Z,7.45
2023-02-02T08:58:32.266Z,8.95
2023-02-02T09:01:08.781Z,7.57
2023-02-02T09:03:35.364Z,7.85
2023-02-02T09:06:05.420Z,7.53
2023-02-02T09:08:33.492Z,8.98
2023-02-02T09:11:04.549Z,7.38
2023-02-02T09:13:31.051Z,8.00
2023-02-02T09:16:01.463Z,4.78
2023-02-02T09:18:28.096Z,7.60
2023-02-02T09:20:54.707Z,7.93
2023-02-02T09:23:21.233Z,5.93
2023-02-02T09:25:47.646Z,7.82
2023-02-02T09:28:14.046Z,6.30
2023-02-02T09:30:40.482Z,6.38
2023-02-02T09:33:06.895Z,5.32
2023-02-02T09:35:33.274Z,6.35
2023-02-02T09:37:59.700Z,5.18
2023-02-02T09:40:27.910Z,4.63
2023-02-02T09:42:59.275Z,7.60
2023-02-02T09:45:28.266Z,5.90
2023-02-02T09:48:04.988Z,6.97
2023-02-02T09:50:38.845Z,4.70
2023-02-02T09:53:17.819Z,5.28
2023-02-02T09:55:45.604Z,6.78
2023-02-02T09:58:27.430Z,8.30
2023-02-02T10:00:56.787Z,6.50
2023-02-02T10:03:31.607Z,6.35
2023-02-02T10:06:02.638Z,5.05
2023-02-02T10:08:49.275Z,6.55
2023-02-02T10:11:27.832Z,7.43
2023-02-02T10:13:57.605Z,8.13
2023-02-02T10:16:24.507Z,5.80
2023-02-02T10:18:50.979Z,5.13
2023-02-02T10:21:17.354Z,5.63
2023-02-02T10:23:44.835Z,4.75
2023-02-02T10:26:21.737Z,4.97
2023-02-02T10:28:48.096Z,6.28
2023-02-02T10:31:21.136Z,5.13
2023-02-02T10:33:53.143Z,6.30
2023-02-02T10:36:19.553Z,5.40
2023-02-02T10:38:56.060Z,6.55
2023-02-02T10:41:30.616Z,5.53
2023-02-02T10:44:20.077Z,5.68
2023-02-02T10:46:51.285Z,4.80
2023-02-02T10:49:34.206Z,3.97
2023-02-02T10:52:26.713Z,5.65
2023-02-02T10:54:57.777Z,4.95
2023-02-02T10:57:30.689Z,6.20
2023-02-02T11:00:02.777Z,6.47
2023-02-02T11:02:29.275Z,6.32
2023-02-02T11:05:14.378Z,3.97
2023-02-02T11:07:40.797Z,4.68
2023-02-02T11:10:07.529Z,4.35
2023-02-02T11:12:35.133Z,6.63
2023-02-02T11:17:32.626Z,4.97
2023-02-02T11:19:59.105Z,5.50
2023-02-02T11:22:30.756Z,5.18
2023-02-02T11:24:58.981Z,4.53
2023-02-02T11:27:39.532Z,5.15
2023-02-02T11:30:21.095Z,5.32
2023-02-02T11:32:49.505Z,8.25
2023-02-02T11:35:18.242Z,5.68
2023-02-02T11:37:53.991Z,5.32
2023-02-02T11:40:28.363Z,4.63
2023-02-02T11:42:55.987Z,4.53
2023-02-02T11:45:34.820Z,4.78
2023-02-02T11:48:02.669Z,6.28
2023-02-02T11:50:29.252Z,5.40
2023-02-02T11:52:55.929Z,6.68
2023-02-02T11:55:26.159Z,3.65
2023-02-02T11:58:18.404Z,5.50
2023-02-02T12:00:48.595Z,6.05
2023-02-02T12:03:30.433Z,6.00
2023-02-02T12:05:57.381Z,5.00
2023-02-02T12:08:24.195Z,3.35
2023-02-02T12:10:58.427Z,3.35
2023-02-02T12:13:45.014Z,3.58
2023-02-02T12:16:17.679Z,3.83
2023-02-02T12:18:44.365Z,5.20
2023-02-02T12:21:14.179Z,4.68
2023-02-02T12:23:46.637Z,5.50
2023-02-02T12:26:21.797Z,4.80
2023-02-02T12:29:06.434Z,5.18
2023-02-02T12:31:41.747Z,3.78
2023-02-02T12:34:30.857Z,3.95
2023-02-02T12:37:03.434Z,3.95
2023-02-02T12:39:40.337Z,3.78
2023-02-02T12:42:12.907Z,6.60
2023-02-02T12:44:50.981Z,7.63
2023-02-02T12:47:23.769Z,6.35
2023-02-02T12:50:04.223Z,5.63
2023-02-02T12:52:30.631Z,4.78
2023-02-02T12:55:09.322Z,4.63
2023-02-02T12:58:07.326Z,7.13
2023-02-02T13:00:42.341Z,4.68
2023-02-02T13:03:11.802Z,6.88
2023-02-02T13:05:41.425Z,4.43
2023-02-02T13:08:12.752Z,4.78
2023-02-02T13:10:43.131Z,4.72
2023-02-02T13:13:14.805Z,5.10
2023-02-02T13:15:42.916Z,6.00
2023-02-02T13:18:19.503Z,6.30
2023-02-02T13:20:51.555Z,4.13
2023-02-02T13:23:37.719Z,3.95
2023-02-02T13:26:04.123Z,5.15
2023-02-02T13:28:34.871Z,4.22
2023-02-02T13:31:06.177Z,5.65
2023-02-02T13:33:34.994Z,4.35
2023-02-02T13:36:03.409Z,3.03
2023-02-02T13:38:30.656Z,6.38
2023-02-02T13:41:03.319Z,5.68
2023-02-02T13:43:48.883Z,5.38
2023-02-02T13:46:24.181Z,4.40
2023-02-02T13:48:50.711Z,5.88
2023-02-02T13:51:25.238Z,4.90
2023-02-02T13:54:10.550Z,6.05
2023-02-02T13:56:58.403Z,5.38
2023-02-02T13:59:24.839Z,6.97
2023-02-02T14:01:52.334Z,7.90
2023-02-02T14:06:54.098Z,4.00
2023-02-02T14:09:20.528Z,5.88
2023-02-02T14:11:55.192Z,5.38
2023-02-02T14:14:31.962Z,4.78
2023-02-02T14:16:59.647Z,4.18
2023-02-02T14:19:28.999Z,4.25
2023-02-02T14:22:16.621Z,4.65
2023-02-02T14:24:44.726Z,3.90
2023-02-02T14:27:11.252Z,3.53
2023-02-02T14:29:57.619Z,3.08
2023-02-02T14:32:24.202Z,3.88
2023-02-02T14:34:51.649Z,2.65
2023-02-02T14:37:23.824Z,5.40
2023-02-02T14:40:02.374Z,2.88
2023-02-02T14:42:50.593Z,5.18
2023-02-02T14:45:26.507Z,2.85
2023-02-02T14:47:54.812Z,4.22
2023-02-02T14:50:21.211Z,3.38
2023-02-02T14:52:56.327Z,3.33
2023-02-02T14:55:23.160Z,2.30
2023-02-02T14:57:54.600Z,5.07
2023-02-02T15:00:26.387Z,3.83
2023-02-02T15:02:55.525Z,2.83
2023-02-02T15:05:28.336Z,4.95
2023-02-02T15:08:05.452Z,2.83
2023-02-02T15:10:51.904Z,2.75
2023-02-02T15:13:19.415Z,3.33
2023-02-02T15:15:49.475Z,3.50
2023-02-02T15:18:18.737Z,2.28
2023-02-02T15:20:53.441Z,3.10
2023-02-02T15:23:46.015Z,2.88
2023-02-02T15:26:12.405Z,7.28
2023-02-02T15:28:43.332Z,5.68
2023-02-02T15:31:17.284Z,6.07
2023-02-02T15:33:51.577Z,5.82
2023-02-02T15:36:23.796Z,8.48
2023-02-02T15:38:52.779Z,9.90
2023-02-02T15:41:22.548Z,7.97
2023-02-02T15:43:49.092Z,11.00
2023-02-02T15:46:24.437Z,11.07
2023-02-02T15:49:11.412Z,8.57
2023-02-02T15:51:38.955Z,14.68
2023-02-02T15:54:19.521Z,8.15
2023-02-02T15:56:45.895Z,6.53
2023-02-02T15:59:20.244Z,6.70
2023-02-02T16:01:52.639Z,10.73
2023-02-02T16:04:19.091Z,4.85
2023-02-02T16:06:45.680Z,6.88
2023-02-02T16:09:26.152Z,8.80
2023-02-02T16:11:52.733Z,9.95
2023-02-02T16:14:19.239Z,10.43
2023-02-02T16:16:47.581Z,5.85
2023-02-02T16:19:21.705Z,6.97
2023-02-02T16:21:51.187Z,13.15
2023-02-02T16:24:22.784Z,8.93
2023-02-02T16:26:50.861Z,6.18
2023-02-02T16:29:19.192Z,3.38
2023-02-02T16:31:46.607Z,3.65
2023-02-02T16:34:17.148Z,6.65
2023-02-02T16:36:43.611Z,10.00
2023-02-02T16:39:17.163Z,7.95
2023-02-02T16:41:47.247Z,9.70
2023-02-02T16:44:32.579Z,7.53
2023-02-02T16:46:59.872Z,6.53
2023-02-02T16:49:26.809Z,4.63
2023-02-02T16:52:10.213Z,6.75
2023-02-02T16:54:37.103Z,4.47
2023-02-02T16:57:04.149Z,4.80
2023-02-02T16:59:34.989Z,6.60
2023-02-02T17:02:04.137Z,4.70
2023-02-02T17:04:34.323Z,6.03
2023-02-02T17:07:09.309Z,6.68
2023-02-02T17:09:37.807Z,5.15
2023-02-02T17:12:36.779Z,4.47
2023-02-02T17:15:18.498Z,5.53
2023-02-02T17:17:47.671Z,5.20
2023-02-02T17:20:14.706Z,5.55
2023-02-02T17:22:42.924Z,7.03
2023-02-02T17:25:14.347Z,6.05
2023-02-02T17:27:40.783Z,3.72
2023-02-02T17:30:07.504Z,4.75
2023-02-02T17:32:33.869Z,5.90
2023-02-02T17:35:00.228Z,4.88
2023-02-02T17:37:26.671Z,5.45
2023-02-02T17:39:53.980Z,4.30
2023-02-02T17:44:46.967Z,4.47
2023-02-02T17:47:13.456Z,4.78
2023-02-02T17:49:39.837Z,4.63
2023-02-02T17:52:06.216Z,4.53
2023-02-02T17:54:32.913Z,5.07
2023-02-02T17:56:59.353Z,5.95
2023-02-02T17:59:25.694Z,5.95
2023-02-02T18:01:54.197Z,5.03
2023-02-02T18:04:21.070Z,6.15
2023-02-02T18:06:47.480Z,4.40
2023-02-02T18:09:13.891Z,5.40
2023-02-02T18:11:42.425Z,6.90
2023-02-02T18:14:09.254Z,5.10
2023-02-02T18:16:35.601Z,4.22
2023-02-02T18:19:03.059Z,6.60
2023-02-02T18:21:30.097Z,4.10
2023-02-02T18:23:56.929Z,4.90
2023-02-02T18:26:23.463Z,4.65
2023-02-02T18:28:50.392Z,4.43
2023-02-02T18:31:19.268Z,4.22
2023-02-02T18:33:46.037Z,4.32
2023-02-02T18:36:13.959Z,4.72
2023-02-02T18:38:41.864Z,4.60
2023-02-02T18:41:08.302Z,4.55
2023-02-02T18:43:34.779Z,3.45
2023-02-02T18:46:02.134Z,5.40
2023-02-02T18:48:29.176Z,4.43
2023-02-02T18:50:55.554Z,4.15
2023-02-02T18:53:21.956Z,5.43
2023-02-02T18:55:48.435Z,4.38
2023-02-02T18:58:14.836Z,5.18
2023-02-02T19:00:41.593Z,5.05
2023-02-02T19:03:08.198Z,5.07
2023-02-02T19:05:53.514Z,6.13
2023-02-02T19:08:19.964Z,6.20
2023-02-02T19:10:46.380Z,5.03
2023-02-02T19:13:21.768Z,5.95
2023-02-02T19:15:48.915Z,4.40
2023-02-02T19:18:22.339Z,5.40
2023-02-02T19:23:19.448Z,3.65
2023-02-02T19:25:50.828Z,5.93
2023-02-02T19:28:30.840Z,6.57
2023-02-02T19:30:58.476Z,5.18
2023-02-02T19:33:32.917Z,5.75
2023-02-02T19:35:59.366Z,5.13
2023-02-02T19:38:28.900Z,4.43
2023-02-02T19:40:55.371Z,4.57
2023-02-02T19:43:28.567Z,5.28
2023-02-02T19:45:57.201Z,5.38
2023-02-02T19:48:29.733Z,9.35
2023-02-02T19:50:58.029Z,4.47
2023-02-02T19:53:25.772Z,6.15
2023-02-02T19:55:52.659Z,4.13
2023-02-02T19:58:28.255Z,5.88
2023-02-02T20:00:55.700Z,3.58
2023-02-02T20:03:45.408Z,3.80
2023-02-02T20:06:22.551Z,4.20
2023-02-02T20:08:49.003Z,4.28
2023-02-02T20:11:24.917Z,4.38
2023-02-02T20:13:51.422Z,3.53
2023-02-02T20:16:22.048Z,4.55
2023-02-02T20:18:50.692Z,4.05
2023-02-02T20:21:22.961Z,4.93
2023-02-02T20:23:49.437Z,6.05
2023-02-02T20:26:15.833Z,3.67
2023-02-02T20:28:45.411Z,4.32
2023-02-02T20:31:17.659Z,4.82
2023-02-02T20:33:48.408Z,4.18
2023-02-02T20:36:27.025Z,4.95
2023-02-02T20:38:53.485Z,5.07
2023-02-02T20:41:19.928Z,4.43
2023-02-02T20:43:46.417Z,4.85
2023-02-02T20:46:13.423Z,4.63
2023-02-02T20:48:39.810Z,5.55
2023-02-02T20:51:06.275Z,3.78
2023-02-02T20:53:32.624Z,4.57
2023-02-02T20:56:01.629Z,3.65
2023-02-02T20:58:28.230Z,5.43
2023-02-02T21:00:55.026Z,4.97
2023-02-02T21:03:21.708Z,4.68
2023-02-02T21:05:48.148Z,3.80
2023-02-02T21:08:14.537Z,5.05
2023-02-02T21:10:40.916Z,3.83
2023-02-02T21:13:07.340Z,4.95
2023-02-02T21:15:33.732Z,4.90
2023-02-02T21:18:00.101Z,4.60
2023-02-02T21:20:26.729Z,4.65
2023-02-02T21:22:53.287Z,3.97
2023-02-02T21:25:19.707Z,3.33
2023-02-02T21:27:55.388Z,3.95
2023-02-02T21:30:21.821Z,3.92
2023-02-02T21:32:48.245Z,3.97
2023-02-02T21:35:15.231Z,5.97
2023-02-02T21:37:44.059Z,3.33
2023-02-02T21:40:12.748Z,4.30
2023-02-02T21:42:39.178Z,5.78
2023-02-02T21:45:20.910Z,5.55
2023-02-02T21:48:07.367Z,4.40
2023-02-02T21:50:35.330Z,5.35
2023-02-02T21:53:10.983Z,5.55
2023-02-02T21:55:38.055Z,5.13
2023-02-02T21:58:13.185Z,5.57
2023-02-02T22:00:39.604Z,4.78
2023-02-02T22:03:19.471Z,4.05
2023-02-02T22:05:45.867Z,4.45
2023-02-02T22:08:19.201Z,9.98
2023-02-02T22:10:45.592Z,5.35
2023-02-02T22:13:15.147Z,5.53
2023-02-02T22:15:42.126Z,6.85
2023-02-02T22:18:17.195Z,6.07
2023-02-02T22:20:46.831Z,5.88
2023-02-02T22:23:18.096Z,7.43
2023-02-02T22:25:45.326Z,10.55
2023-02-02T22:28:26.052Z,15.85
2023-02-02T22:30:53.167Z,6.88
2023-02-02T22:33:19.775Z,6.53
2023-02-02T22:35:46.542Z,11.55
2023-02-02T22:38:17.088Z,5.05
2023-02-02T22:40:43.878Z,5.18
2023-02-02T22:43:13.227Z,8.02
2023-02-02T22:45:39.794Z,7.30
2023-02-02T22:48:06.155Z,9.85
2023-02-02T22:50:34.129Z,5.47
2023-02-02T22:53:01.205Z,4.72
2023-02-02T22:55:27.699Z,4.38
2023-02-02T22:57:54.262Z,6.80
2023-02-02T23:00:22.740Z,9.95
2023-02-02T23:02:49.366Z,11.90
2023-02-02T23:05:17.034Z,15.60
2023-02-02T23:07:46.357Z,9.52
2023-02-02T23:10:13.902Z,12.00
2023-02-02T23:12:40.575Z,9.57
2023-02-02T23:15:07.583Z,9.82
2023-02-02T23:17:35.199Z,13.70
2023-02-02T23:20:05.123Z,16.55
2023-02-02T23:22:31.519Z,10.35
2023-02-02T23:24:58.121Z,11.35
2023-02-02T23:27:24.843Z,14.85
2023-02-02T23:29:51.349Z,9.07
2023-02-02T23:32:17.798Z,8.20
2023-02-02T23:34:44.401Z,10.05
2023-02-02T23:37:10.809Z,12.18
2023-02-02T23:39:37.188Z,10.32
2023-02-02T23:42:04.066Z,8.25
2023-02-02T23:44:30.462Z,7.75
2023-02-02T23:46:57.155Z,5.82
2023-02-02T23:49:23.842Z,7.30
2023-02-02T23:51:50.280Z,7.20
2023-02-02T23:54:16.651Z,8.50
2023-02-02T23:56:43.170Z,6.38
2023-02-02T23:59:09.621Z,6.70
